Time;durP1;ratioP1;P1;durP2;ratioP2;P2;SDS_P1;SDS_P2;PMS_P1;PMS_P2;Temp;Humidity;BMP_temperature;BMP_pressure;BME280_temperature;BME280_humidity;BME280_pressure;Samples;Min_cycle;Max_cycle;Signal;HPM_P1;HPM_P2
2021/11/16 00:02:48;;;;;;;;;;;17.10;42.50;;;;;;8367736;28;19924;-49
2021/11/16 00:06:52;;;;;;;;;;;17.00;42.40;;;;;;8367592;28;20324;-50
2021/11/16 00:10:52;;;;;;;;;;;17.00;42.50;;;;;;8367911;28;19931;-52
2021/11/16 00:14:53;;;;;;;;;;;17.00;42.50;;;;;;8367223;28;20404;-49
2021/11/16 00:19:02;;;;;;;;;;;17.00;42.50;;;;;;8368130;28;19924;-49
2021/11/16 00:23:02;;;;;;;;;;;17.10;42.50;;;;;;8367629;28;19929;-48
2021/11/16 00:27:04;;;;;;;;;;;17.10;42.60;;;;;;8367080;28;19924;-49
2021/11/16 00:31:05;;;;;;;;;;;17.00;42.50;;;;;;8367171;28;19925;-49
2021/11/16 00:35:06;;;;;;;;;;;17.10;42.60;;;;;;8367153;28;19917;-52
2021/11/16 00:39:06;;;;;;;;;;;17.00;42.50;;;;;;8366831;28;19952;-48
2021/11/16 00:43:08;;;;;;;;;;;17.00;42.60;;;;;;8367336;28;19916;-49
2021/11/16 00:47:08;;;;;;;;;;;17.00;42.60;;;;;;8366765;28;19920;-51
2021/11/16 00:51:09;;;;;;;;;;;17.00;42.60;;;;;;8366212;28;19925;-50
2021/11/16 00:55:10;;;;;;;;;;;17.00;42.60;;;;;;8366255;28;20025;-50
2021/11/16 00:59:11;;;;;;;;;;;17.00;42.60;;;;;;8366789;28;19999;-48
2021/11/16 01:03:13;;;;;;;;;;;17.00;42.60;;;;;;8365680;28;20019;-48
2021/11/16 01:07:14;;;;;;;;;;;17.00;42.60;;;;;;8366103;28;19916;-49
2021/11/16 01:11:14;;;;;;;;;;;17.00;42.60;;;;;;8365937;28;19925;-49
2021/11/16 01:15:15;;;;;;;;;;;17.00;42.60;;;;;;8365598;28;19917;-48
2021/11/16 01:19:16;;;;;;;;;;;17.00;42.60;;;;;;8365249;28;19913;-48
2021/11/16 01:23:18;;;;;;;;;;;17.00;42.60;;;;;;8365590;28;19917;-49
2021/11/16 01:27:20;;;;;;;;;;;17.00;42.60;;;;;;8364984;28;19917;-48
2021/11/16 01:31:20;;;;;;;;;;;17.00;42.60;;;;;;8365490;28;19925;-49
2021/11/16 01:35:21;;;;;;;;;;;17.00;42.60;;;;;;8365070;28;19950;-49
2021/11/16 01:39:22;;;;;;;;;;;17.00;42.60;;;;;;8364820;28;19924;-49
2021/11/16 01:43:22;;;;;;;;;;;16.90;42.60;;;;;;8364770;28;19921;-48
2021/11/16 01:47:23;;;;;;;;;;;16.90;42.60;;;;;;8364724;28;19917;-49
2021/11/16 01:51:25;;;;;;;;;;;17.00;42.60;;;;;;8364019;28;19924;-50
2021/11/16 01:55:26;;;;;;;;;;;16.90;42.60;;;;;;8364218;28;20451;-49
2021/11/16 01:59:27;;;;;;;;;;;16.90;42.60;;;;;;8364261;28;19913;-49
2021/11/16 02:03:27;;;;;;;;;;;16.90;42.60;;;;;;8364356;28;20297;-52
2021/11/16 02:07:28;;;;;;;;;;;16.90;42.60;;;;;;8363507;28;19952;-51
2021/11/16 02:11:28;;;;;;;;;;;16.90;42.60;;;;;;8363715;28;19964;-50
2021/11/16 02:15:29;;;;;;;;;;;16.90;42.60;;;;;;8363924;28;19917;-50
2021/11/16 02:19:31;;;;;;;;;;;16.90;42.60;;;;;;8364076;28;19913;-50
2021/11/16 02:23:31;;;;;;;;;;;16.90;42.60;;;;;;8363238;28;19917;-49
2021/11/16 02:27:32;;;;;;;;;;;16.90;42.60;;;;;;8363802;28;19963;-49
2021/11/16 02:31:33;;;;;;;;;;;16.90;42.60;;;;;;8363451;28;19935;-48
2021/11/16 02:35:34;;;;;;;;;;;16.90;42.60;;;;;;8363094;28;19939;-49
2021/11/16 02:39:35;;;;;;;;;;;16.90;42.70;;;;;;8363802;28;19912;-49
2021/11/16 02:43:36;;;;;;;;;;;16.90;42.60;;;;;;8363379;28;20374;-49
2021/11/16 02:47:37;;;;;;;;;;;16.90;42.60;;;;;;8362797;28;20385;-49
2021/11/16 02:51:39;;;;;;;;;;;16.90;42.60;;;;;;8363299;28;19947;-49
2021/11/16 02:55:40;;;;;;;;;;;16.90;42.60;;;;;;8363197;28;19929;-49
2021/11/16 02:59:41;;;;;;;;;;;16.90;42.60;;;;;;8362847;28;20078;-51
2021/11/16 03:03:43;;;;;;;;;;;16.90;42.60;;;;;;8363359;28;20348;-48
2021/11/16 03:07:56;;;;;;;;;;;16.90;42.60;;;;;;8363117;28;19924;-49
2021/11/16 03:11:57;;;;;;;;;;;16.90;42.60;;;;;;8362373;28;19925;-50
2021/11/16 03:15:57;;;;;;;;;;;16.90;42.70;;;;;;8362987;28;19919;-49
2021/11/16 03:19:58;;;;;;;;;;;16.90;42.60;;;;;;8363275;28;19920;-50
2021/11/16 03:23:58;;;;;;;;;;;16.90;42.60;;;;;;8362685;28;19923;-50
2021/11/16 03:28:04;;;;;;;;;;;16.90;42.70;;;;;;8362397;28;19926;-51
2021/11/16 03:32:08;;;;;;;;;;;16.90;42.60;;;;;;8366175;28;20019;-53
2021/11/16 03:36:08;;;;;;;;;;;16.80;42.60;;;;;;8362013;28;19917;-50
2021/11/16 03:40:09;;;;;;;;;;;16.80;42.60;;;;;;8364310;28;20008;-50
2021/11/16 03:44:10;;;;;;;;;;;16.90;42.60;;;;;;8368438;28;19916;-49
2021/11/16 03:48:11;;;;;;;;;;;16.80;42.60;;;;;;8367948;28;19917;-50
2021/11/16 03:52:11;;;;;;;;;;;16.80;42.60;;;;;;8368344;28;19924;-50
2021/11/16 03:56:12;;;;;;;;;;;16.80;42.60;;;;;;8368133;28;19963;-48
2021/11/16 04:00:18;;;;;;;;;;;16.80;42.60;;;;;;8367932;28;20262;-49
2021/11/16 04:04:19;;;;;;;;;;;16.80;42.60;;;;;;8368050;28;19921;-49
2021/11/16 04:08:20;;;;;;;;;;;16.80;42.60;;;;;;8367924;28;19928;-50
2021/11/16 04:12:21;;;;;;;;;;;16.80;42.60;;;;;;8367128;28;19925;-49
2021/11/16 04:16:22;;;;;;;;;;;16.80;42.60;;;;;;8367873;28;20382;-49
2021/11/16 04:20:24;;;;;;;;;;;16.80;42.70;;;;;;8367906;28;19964;-49
2021/11/16 04:24:25;;;;;;;;;;;16.80;42.70;;;;;;8366750;28;20003;-49
2021/11/16 04:28:25;;;;;;;;;;;16.80;42.70;;;;;;8367077;28;20305;-49
2021/11/16 04:32:25;;;;;;;;;;;16.80;42.70;;;;;;8366584;28;20305;-51
2021/11/16 04:36:27;;;;;;;;;;;16.80;42.70;;;;;;8366964;28;20435;-49
2021/11/16 04:40:35;;;;;;;;;;;16.80;42.70;;;;;;8367231;28;20445;-49
2021/11/16 04:44:37;;;;;;;;;;;16.80;42.70;;;;;;8368668;28;19970;-48
2021/11/16 05:05:26;;;;;;;;;;;16.80;42.60;;;;;;8366099;28;19963;-48
2021/11/16 05:09:26;;;;;;;;;;;16.80;42.70;;;;;;8345447;28;20370;-49
2021/11/16 05:13:27;;;;;;;;;;;16.80;42.70;;;;;;8351546;28;20433;-48
2021/11/16 05:17:27;;;;;;;;;;;16.80;42.60;;;;;;8365268;28;20389;-49
2021/11/16 05:21:28;;;;;;;;;;;16.80;42.60;;;;;;8365968;28;19971;-49
2021/11/16 05:25:29;;;;;;;;;;;16.90;42.70;;;;;;8365843;28;19924;-49
2021/11/16 05:29:29;;;;;;;;;;;16.80;42.60;;;;;;8364760;28;19940;-49
2021/11/16 05:33:30;;;;;;;;;;;16.80;42.60;;;;;;8365501;28;19917;-49
2021/11/16 05:37:31;;;;;;;;;;;16.90;42.60;;;;;;8365321;28;19962;-49
2021/11/16 05:41:32;;;;;;;;;;;16.80;42.60;;;;;;8364638;28;19917;-49
2021/11/16 05:45:32;;;;;;;;;;;16.90;42.70;;;;;;8364980;28;19921;-49
2021/11/16 05:49:33;;;;;;;;;;;16.90;42.70;;;;;;8364640;28;19933;-50
2021/11/16 05:53:35;;;;;;;;;;;16.80;42.60;;;;;;8364352;28;19917;-48
2021/11/16 05:57:36;;;;;;;;;;;16.90;42.70;;;;;;8364894;28;19921;-48
2021/11/16 06:01:37;;;;;;;;;;;16.90;42.70;;;;;;8364398;28;20294;-49
2021/11/16 06:05:37;;;;;;;;;;;16.90;42.80;;;;;;8363576;28;19916;-49
2021/11/16 06:09:38;;;;;;;;;;;16.80;42.60;;;;;;8364213;28;19928;-49
2021/11/16 06:13:38;;;;;;;;;;;16.90;42.70;;;;;;8364043;28;20285;-50
2021/11/16 06:17:40;;;;;;;;;;;16.80;42.60;;;;;;8363420;28;20424;-49
2021/11/16 06:21:40;;;;;;;;;;;16.90;42.60;;;;;;8364163;28;19978;-49
2021/11/16 06:25:41;;;;;;;;;;;16.90;42.70;;;;;;8363632;28;20453;-49
2021/11/16 06:29:41;;;;;;;;;;;16.90;42.70;;;;;;8363047;28;20277;-49
2021/11/16 06:33:42;;;;;;;;;;;16.80;42.70;;;;;;8363385;28;19928;-49
2021/11/16 06:37:43;;;;;;;;;;;16.90;42.70;;;;;;8363336;28;19927;-49
2021/11/16 06:41:44;;;;;;;;;;;16.80;42.60;;;;;;8363155;28;19916;-51
2021/11/16 06:45:49;;;;;;;;;;;16.90;42.70;;;;;;8363437;28;20003;-49
2021/11/16 06:49:50;;;;;;;;;;;16.90;42.70;;;;;;8363226;28;20305;-50
2021/11/16 06:53:51;;;;;;;;;;;16.80;42.60;;;;;;8362650;28;19963;-50
2021/11/16 06:57:51;;;;;;;;;;;16.90;42.70;;;;;;8363036;28;20003;-49
2021/11/16 07:01:53;;;;;;;;;;;16.90;42.70;;;;;;8363237;28;19916;-49
2021/11/16 07:05:58;;;;;;;;;;;16.80;42.60;;;;;;8362506;28;19917;-52
2021/11/16 07:09:59;;;;;;;;;;;16.90;42.70;;;;;;8363006;28;19978;-51
2021/11/16 07:14:03;;;;;;;;;;;16.90;42.70;;;;;;8362843;28;19924;-53
2021/11/16 07:18:04;;;;;;;;;;;16.80;42.60;;;;;;8368931;28;20313;-52
2021/11/16 07:22:10;;;;;;;;;;;16.90;42.70;;;;;;8369640;28;20378;-51
2021/11/16 07:26:15;;;;;;;;;;;16.90;42.70;;;;;;8369526;28;19916;-49
2021/11/16 07:30:17;;;;;;;;;;;16.90;42.70;;;;;;8368379;28;20293;-48
2021/11/16 07:34:21;;;;;;;;;;;16.90;42.70;;;;;;8369078;28;19917;-48
2021/11/16 07:38:22;;;;;;;;;;;16.90;42.70;;;;;;8368857;28;19924;-49
2021/11/16 07:42:24;;;;;;;;;;;16.90;42.70;;;;;;8368315;28;20004;-49
2021/11/16 07:46:25;;;;;;;;;;;16.90;42.70;;;;;;8368930;28;20003;-50
2021/11/16 07:50:25;;;;;;;;;;;16.90;42.70;;;;;;8367879;28;19925;-47
2021/11/16 07:54:28;;;;;;;;;;;16.90;42.70;;;;;;8367969;28;19924;-49
2021/11/16 07:58:34;;;;;;;;;;;16.90;42.70;;;;;;8368444;28;19924;-50
2021/11/16 08:02:37;;;;;;;;;;;16.90;42.70;;;;;;8369778;28;20298;-49
2021/11/16 08:06:39;;;;;;;;;;;16.90;42.70;;;;;;8368043;28;19916;-49
2021/11/16 08:10:43;;;;;;;;;;;16.90;42.70;;;;;;8345124;28;20344;-49
2021/11/16 08:14:44;;;;;;;;;;;16.90;42.70;;;;;;8353025;28;20020;-49
2021/11/16 08:18:50;;;;;;;;;;;16.90;42.70;;;;;;8367484;28;20285;-50
2021/11/16 08:22:50;;;;;;;;;;;16.90;42.70;;;;;;8367426;28;20301;-50
2021/11/16 08:26:53;;;;;;;;;;;16.90;42.70;;;;;;8366539;28;19996;-49
2021/11/16 08:30:53;;;;;;;;;;;16.90;42.70;;;;;;8367158;28;20046;-49
2021/11/16 08:34:54;;;;;;;;;;;16.90;42.70;;;;;;8366834;28;19917;-49
2021/11/16 08:38:56;;;;;;;;;;;16.90;42.80;;;;;;8366236;28;20275;-50
2021/11/16 08:43:02;;;;;;;;;;;16.90;42.70;;;;;;8366857;28;19924;-49
2021/11/16 08:47:10;;;;;;;;;;;16.90;42.70;;;;;;8366867;28;20003;-50
2021/11/16 08:51:17;;;;;;;;;;;16.90;42.70;;;;;;8366071;28;19971;-51
2021/11/16 08:55:19;;;;;;;;;;;16.90;42.70;;;;;;8366559;28;20365;-52
2021/11/16 08:59:20;;;;;;;;;;;16.90;42.70;;;;;;8366290;28;20030;-50
2021/11/16 09:03:26;;;;;;;;;;;16.90;42.70;;;;;;8365706;28;19917;-51
2021/11/16 09:07:29;;;;;;;;;;;16.90;42.70;;;;;;8371707;28;20396;-49
2021/11/16 09:11:29;;;;;;;;;;;16.90;42.70;;;;;;8365427;28;20019;-49
2021/11/16 09:15:32;;;;;;;;;;;16.90;42.70;;;;;;8365557;28;20476;-49
2021/11/16 09:19:34;;;;;;;;;;;16.90;42.70;;;;;;8365696;28;19921;-50
2021/11/16 09:23:36;;;;;;;;;;;16.90;42.70;;;;;;8364889;28;19917;-49
2021/11/16 09:27:41;;;;;;;;;;;16.90;42.70;;;;;;8365792;28;19923;-47
2021/11/16 09:31:45;;;;;;;;;;;17.00;42.70;;;;;;8365148;28;19947;-50
2021/11/16 09:35:48;;;;;;;;;;;17.00;42.80;;;;;;8364672;28;19927;-48
2021/11/16 09:39:53;;;;;;;;;;;17.00;42.70;;;;;;8364151;28;19975;-49
2021/11/16 09:43:59;;;;;;;;;;;17.00;42.70;;;;;;8364877;28;19974;-49
2021/11/16 09:48:01;;;;;;;;;;;17.00;42.70;;;;;;8364422;28;19944;-49
2021/11/16 09:52:13;;;;;;;;;;;16.90;42.70;;;;;;8364617;28;19925;-49
2021/11/16 09:56:18;;;;;;;;;;;17.00;42.70;;;;;;8364446;28;19924;-50
2021/11/16 10:00:21;;;;;;;;;;;17.00;42.70;;;;;;8363734;28;19921;-49
2021/11/16 10:04:26;;;;;;;;;;;17.00;42.70;;;;;;8364400;28;19917;-50
2021/11/16 10:08:28;;;;;;;;;;;17.00;42.70;;;;;;8363758;28;19923;-48
2021/11/16 10:12:39;;;;;;;;;;;17.00;42.70;;;;;;8363965;28;19932;-50
2021/11/16 10:16:40;;;;;;;;;;;17.00;42.70;;;;;;8364003;28;19920;-49
2021/11/16 10:20:43;;;;;;;;;;;17.00;42.70;;;;;;8363261;28;20324;-50
2021/11/16 10:24:45;;;;;;;;;;;17.00;42.60;;;;;;8363562;28;20365;-49
2021/11/16 10:28:47;;;;;;;;;;;17.00;42.60;;;;;;8363775;28;20309;-51
2021/11/16 10:33:07;;;;;;;;;;;17.00;42.70;;;;;;8363507;28;19924;-49
2021/11/16 10:37:08;;;;;;;;;;;17.00;42.60;;;;;;8363636;28;19920;-49
2021/11/16 10:41:11;;;;;;;;;;;17.00;42.60;;;;;;8363489;28;19924;-50
2021/11/16 10:45:21;;;;;;;;;;;17.10;42.70;;;;;;8362574;28;19917;-49
2021/11/16 10:49:22;;;;;;;;;;;17.00;42.60;;;;;;8363038;28;19917;-50
2021/11/16 10:53:24;;;;;;;;;;;17.00;42.60;;;;;;8363100;28;20377;-49
2021/11/16 10:57:25;;;;;;;;;;;17.00;42.60;;;;;;8362276;28;19925;-53
2021/11/16 11:01:25;;;;;;;;;;;17.00;42.60;;;;;;8363114;28;19986;-53
2021/11/16 11:05:33;;;;;;;;;;;17.00;42.60;;;;;;8362471;28;20381;-49
2021/11/16 11:09:33;;;;;;;;;;;17.10;42.60;;;;;;8357927;28;19921;-53
2021/11/16 11:13:35;;;;;;;;;;;17.10;42.60;;;;;;8329966;28;19921;-50
2021/11/16 11:17:35;;;;;;;;;;;17.10;42.60;;;;;;8362093;28;19924;-50
2021/11/16 11:21:42;;;;;;;;;;;17.10;42.60;;;;;;8362915;28;19920;-48
2021/11/16 11:25:48;;;;;;;;;;;17.10;42.60;;;;;;8362416;28;19920;-50
2021/11/16 11:29:56;;;;;;;;;;;17.10;42.60;;;;;;8363792;28;20352;-53
2021/11/16 11:33:56;;;;;;;;;;;17.10;42.60;;;;;;8368657;28;19913;-48
2021/11/16 11:37:58;;;;;;;;;;;17.10;42.60;;;;;;8362887;28;19917;-49
2021/11/16 11:41:59;;;;;;;;;;;17.10;42.70;;;;;;8362031;28;19916;-49
2021/11/16 11:46:00;;;;;;;;;;;17.10;43.20;;;;;;8362414;28;19921;-49
2021/11/16 11:50:01;;;;;;;;;;;17.10;42.60;;;;;;8361879;28;19978;-50
2021/11/16 11:54:01;;;;;;;;;;;17.00;42.60;;;;;;8361532;28;19917;-50
2021/11/16 11:58:03;;;;;;;;;;;17.10;42.60;;;;;;8362446;28;19925;-48
2021/11/16 12:02:06;;;;;;;;;;;17.10;42.60;;;;;;8365058;28;19925;-48
2021/11/16 12:06:07;;;;;;;;;;;17.10;42.60;;;;;;8367404;28;19967;-49
2021/11/16 12:10:08;;;;;;;;;;;17.10;42.60;;;;;;8367809;28;19932;-49
2021/11/16 12:14:38;;;;;;;;;;;17.10;42.60;;;;;;8367590;28;19916;-49
2021/11/16 12:18:43;;;;;;;;;;;17.10;42.60;;;;;;8362376;28;19924;-49
2021/11/16 12:22:47;;;;;;;;;;;17.10;42.60;;;;;;8367501;28;20339;-48
2021/11/16 12:26:53;;;;;;;;;;;17.10;42.60;;;;;;8366851;28;20443;-49
2021/11/16 12:30:55;;;;;;;;;;;17.10;42.60;;;;;;8366955;28;19928;-48
2021/11/16 12:35:03;;;;;;;;;;;17.10;42.60;;;;;;8366955;28;19917;-50
2021/11/16 12:39:12;;;;;;;;;;;17.10;42.60;;;;;;8367702;28;20377;-49
2021/11/16 12:43:18;;;;;;;;;;;17.10;42.60;;;;;;8366893;28;19916;-48
2021/11/16 12:47:18;;;;;;;;;;;17.10;42.50;;;;;;8366590;28;19917;-48
2021/11/16 12:51:20;;;;;;;;;;;17.10;42.50;;;;;;8365874;28;19928;-48
2021/11/16 12:55:24;;;;;;;;;;;17.10;42.60;;;;;;8366412;28;19921;-50
2021/11/16 12:59:25;;;;;;;;;;;17.10;42.60;;;;;;8366413;28;20007;-49
2021/11/16 13:03:44;;;;;;;;;;;17.10;42.50;;;;;;8365902;28;19920;-48
2021/11/16 13:07:54;;;;;;;;;;;17.10;42.60;;;;;;8365936;28;19924;-49
2021/11/16 13:11:55;;;;;;;;;;;17.10;42.60;;;;;;8364227;28;19970;-48
2021/11/16 13:16:04;;;;;;;;;;;17.10;42.60;;;;;;8365548;28;19956;-50
2021/11/16 13:20:05;;;;;;;;;;;17.10;42.60;;;;;;8365618;28;19924;-49
2021/11/16 13:24:07;;;;;;;;;;;17.10;42.60;;;;;;8365239;28;20427;-48
2021/11/16 13:28:10;;;;;;;;;;;17.20;42.60;;;;;;8365644;28;19917;-50
2021/11/16 13:32:11;;;;;;;;;;;17.20;42.60;;;;;;8365179;28;19932;-52
2021/11/16 13:36:14;;;;;;;;;;;17.10;42.60;;;;;;8364596;28;20381;-50
2021/11/16 13:40:17;;;;;;;;;;;17.10;42.60;;;;;;8364864;28;19924;-49
2021/11/16 13:44:26;;;;;;;;;;;17.20;42.50;;;;;;8365158;28;20016;-49
2021/11/16 13:48:27;;;;;;;;;;;17.20;42.60;;;;;;8364515;28;19940;-49
2021/11/16 13:52:29;;;;;;;;;;;17.20;42.60;;;;;;8364709;28;19925;-49
2021/11/16 13:56:31;;;;;;;;;;;17.20;42.60;;;;;;8363873;28;19995;-49
2021/11/16 14:00:34;;;;;;;;;;;17.20;42.60;;;;;;8364216;28;20341;-51
2021/11/16 14:04:34;;;;;;;;;;;17.20;42.60;;;;;;8363599;28;20004;-50
2021/11/16 14:08:39;;;;;;;;;;;17.20;42.50;;;;;;8363344;28;20389;-52
2021/11/16 14:12:41;;;;;;;;;;;17.20;42.50;;;;;;8363624;28;20461;-50
2021/11/16 14:16:41;;;;;;;;;;;17.20;42.50;;;;;;8364226;28;19917;-50
2021/11/16 14:20:43;;;;;;;;;;;17.20;42.50;;;;;;8363086;28;19956;-50
2021/11/16 14:24:43;;;;;;;;;;;17.20;42.50;;;;;;8363352;28;19917;-50
2021/11/16 14:28:44;;;;;;;;;;;17.20;42.50;;;;;;8363413;28;20373;-51
2021/11/16 14:32:45;;;;;;;;;;;17.20;42.50;;;;;;8362952;28;20300;-49
2021/11/16 14:36:50;;;;;;;;;;;17.10;42.50;;;;;;8363455;28;19917;-50
2021/11/16 14:40:50;;;;;;;;;;;17.20;42.50;;;;;;8364053;28;20003;-51
2021/11/16 14:44:53;;;;;;;;;;;17.20;42.50;;;;;;8362902;28;19936;-50
2021/11/16 14:48:56;;;;;;;;;;;17.20;42.50;;;;;;8363050;28;19921;-49
2021/11/16 14:52:57;;;;;;;;;;;17.20;42.60;;;;;;8362838;28;19948;-51
2021/11/16 14:56:57;;;;;;;;;;;17.20;42.50;;;;;;8362357;28;19928;-51
2021/11/16 15:00:58;;;;;;;;;;;17.20;42.50;;;;;;8363157;28;19912;-52
2021/11/16 15:04:58;;;;;;;;;;;17.20;42.50;;;;;;8363011;28;19917;-52
2021/11/16 15:09:04;;;;;;;;;;;17.20;42.50;;;;;;8362279;28;20401;-53
2021/11/16 15:13:05;;;;;;;;;;;17.20;42.50;;;;;;8362760;28;20326;-50
2021/11/16 15:17:06;;;;;;;;;;;17.10;42.50;;;;;;8362635;28;19919;-49
2021/11/16 15:21:28;;;;;;;;;;;17.20;42.50;;;;;;8361958;28;19969;-50
2021/11/16 15:25:29;;;;;;;;;;;17.10;42.50;;;;;;8362352;28;19913;-50
2021/11/16 15:29:29;;;;;;;;;;;17.10;42.40;;;;;;8362185;28;19917;-52
2021/11/16 15:33:34;;;;;;;;;;;17.20;42.50;;;;;;8362238;28;19925;-52
2021/11/16 15:37:35;;;;;;;;;;;17.20;42.50;;;;;;8366451;28;19917;-49
2021/11/16 15:42:02;;;;;;;;;;;17.20;42.50;;;;;;8368208;28;20416;-48
2021/11/16 15:46:12;;;;;;;;;;;17.20;42.40;;;;;;8368042;28;20019;-50
2021/11/16 15:58:35;;;;;;;;;;;17.20;42.50;;;;;;8373293;28;19967;-51
2021/11/16 16:02:35;;;;;;;;;;;17.20;42.50;;;;;;8367443;28;20293;-47
2021/11/16 16:06:37;;;;;;;;;;;17.20;42.50;;;;;;8368025;28;20007;-47
2021/11/16 16:10:43;;;;;;;;;;;17.20;42.60;;;;;;8367026;28;21395;-50
2021/11/16 16:14:44;;;;;;;;;;;17.20;42.50;;;;;;8367345;28;20011;-52
2021/11/16 16:18:45;;;;;;;;;;;17.20;42.40;;;;;;8367355;28;19924;-48
2021/11/16 16:22:45;;;;;;;;;;;17.10;42.40;;;;;;8367459;28;19928;-48
2021/11/16 16:26:46;;;;;;;;;;;17.20;42.50;;;;;;8367035;28;19924;-50
2021/11/16 16:30:47;;;;;;;;;;;17.20;42.40;;;;;;8367016;28;19986;-49
2021/11/16 16:34:48;;;;;;;;;;;17.20;42.40;;;;;;8367511;28;19917;-50
2021/11/16 16:38:48;;;;;;;;;;;17.20;42.40;;;;;;8366728;28;19944;-49
2021/11/16 16:42:49;;;;;;;;;;;17.10;42.40;;;;;;8367112;28;20443;-52
2021/11/16 16:46:51;;;;;;;;;;;17.20;42.40;;;;;;8366124;28;19913;-51
2021/11/16 16:50:52;;;;;;;;;;;17.20;42.40;;;;;;8366164;28;20408;-50
2021/11/16 16:54:54;;;;;;;;;;;17.20;42.50;;;;;;8366486;28;19921;-52
2021/11/16 16:58:57;;;;;;;;;;;17.20;42.40;;;;;;8366024;28;19921;-53
2021/11/16 17:02:58;;;;;;;;;;;17.20;42.40;;;;;;8365696;28;20289;-53
2021/11/16 17:07:00;;;;;;;;;;;17.20;42.40;;;;;;8366338;28;19978;-49
2021/11/16 17:11:00;;;;;;;;;;;17.20;42.40;;;;;;8332210;28;20016;-51
2021/11/16 17:15:01;;;;;;;;;;;17.20;42.50;;;;;;8364945;28;19917;-49
2021/11/16 17:19:04;;;;;;;;;;;17.20;42.40;;;;;;8365543;28;19917;-51
2021/11/16 17:23:05;;;;;;;;;;;17.20;42.40;;;;;;8365653;28;20381;-50
2021/11/16 17:27:07;;;;;;;;;;;17.10;42.40;;;;;;8365081;28;19970;-53
2021/11/16 17:31:08;;;;;;;;;;;17.20;42.40;;;;;;8365541;28;19928;-51
2021/11/16 17:35:09;;;;;;;;;;;17.20;42.40;;;;;;8365145;28;20397;-50
2021/11/16 17:39:09;;;;;;;;;;;17.20;42.40;;;;;;8364549;28;19917;-50
2021/11/16 17:43:10;;;;;;;;;;;17.20;42.30;;;;;;8365135;28;20035;-49
2021/11/16 17:47:13;;;;;;;;;;;17.20;42.30;;;;;;8364535;28;19924;-49
2021/11/16 17:51:13;;;;;;;;;;;17.20;42.30;;;;;;8363865;28;20451;-48
2021/11/16 17:55:14;;;;;;;;;;;17.10;42.40;;;;;;8364360;28;19932;-49
2021/11/16 17:59:16;;;;;;;;;;;17.20;42.30;;;;;;8363825;28;19948;-53
2021/11/16 18:03:17;;;;;;;;;;;17.10;42.30;;;;;;8363952;28;19924;-53
2021/11/16 18:11:37;;;;;;;;;;;17.20;42.30;;;;;;8366068;28;19928;-50
2021/11/16 18:15:38;;;;;;;;;;;17.20;42.30;;;;;;8364159;28;19913;-52
2021/11/16 18:19:38;;;;;;;;;;;17.20;42.30;;;;;;8363958;28;19917;-53
2021/11/16 18:23:39;;;;;;;;;;;17.20;42.30;;;;;;8361541;28;19917;-52
2021/11/16 18:27:43;;;;;;;;;;;17.20;42.30;;;;;;8363421;28;20369;-51
2021/11/16 18:31:43;;;;;;;;;;;17.20;42.30;;;;;;8363718;28;19966;-51
2021/11/16 18:35:44;;;;;;;;;;;17.20;42.30;;;;;;8363362;28;19917;-49
2021/11/16 18:39:49;;;;;;;;;;;17.20;42.30;;;;;;8363575;28;19924;-49
2021/11/16 18:47:55;;;;;;;;;;;17.20;42.30;;;;;;8362712;28;19917;-49
2021/11/16 18:51:56;;;;;;;;;;;17.20;42.30;;;;;;8363296;28;19921;-49
2021/11/16 18:55:56;;;;;;;;;;;17.20;42.30;;;;;;8363351;28;19928;-51
2021/11/16 18:59:57;;;;;;;;;;;17.20;42.30;;;;;;8362583;28;20362;-52
2021/11/16 19:03:57;;;;;;;;;;;17.10;42.80;;;;;;8363283;28;19917;-50
2021/11/16 19:07:58;;;;;;;;;;;17.10;42.40;;;;;;8362760;28;19916;-50
2021/11/16 19:11:59;;;;;;;;;;;17.20;42.30;;;;;;8367324;28;20298;-49
2021/11/16 19:15:59;;;;;;;;;;;17.20;42.40;;;;;;8369958;28;20389;-53
2021/11/16 19:19:59;;;;;;;;;;;17.10;42.40;;;;;;8369773;28;19923;-50
2021/11/16 19:24:00;;;;;;;;;;;17.20;42.40;;;;;;8368918;28;20115;-49
2021/11/16 19:28:13;;;;;;;;;;;17.20;42.40;;;;;;8369337;28;19924;-50
2021/11/16 19:32:14;;;;;;;;;;;17.20;42.30;;;;;;8369086;28;19967;-49
2021/11/16 19:40:45;;;;;;;;;;;17.20;42.30;;;;;;8335847;28;20421;-50
2021/11/16 19:44:45;;;;;;;;;;;17.20;42.30;;;;;;8357786;28;19917;-50
2021/11/16 19:48:46;;;;;;;;;;;17.10;42.30;;;;;;8368637;28;19917;-49
2021/11/16 19:52:47;;;;;;;;;;;17.20;42.30;;;;;;8368279;28;19932;-49
2021/11/16 19:56:47;;;;;;;;;;;17.20;42.30;;;;;;8368168;28;19921;-51
2021/11/16 20:00:48;;;;;;;;;;;17.20;42.30;;;;;;8368647;28;20442;-51
2021/11/16 20:04:49;;;;;;;;;;;17.20;42.30;;;;;;8366916;28;19921;-49
2021/11/16 20:08:50;;;;;;;;;;;17.20;42.30;;;;;;8367669;28;19967;-48
2021/11/16 20:12:51;;;;;;;;;;;17.20;42.30;;;;;;8367783;28;20297;-48
2021/11/16 20:16:52;;;;;;;;;;;17.20;42.30;;;;;;8368210;28;19913;-48
2021/11/16 20:20:53;;;;;;;;;;;17.20;42.30;;;;;;8365755;28;19971;-52
2021/11/16 20:24:54;;;;;;;;;;;17.20;42.30;;;;;;8367534;28;19973;-48
2021/11/16 20:28:58;;;;;;;;;;;17.20;42.30;;;;;;8367231;28;20435;-50
2021/11/16 20:33:02;;;;;;;;;;;17.20;42.30;;;;;;8366765;28;19964;-50
2021/11/16 20:37:03;;;;;;;;;;;17.20;42.30;;;;;;8367456;28;19939;-51
2021/11/16 20:41:19;;;;;;;;;;;17.20;42.30;;;;;;8367068;28;19920;-49
2021/11/16 21:02:30;;;;;;;;;;;17.20;42.30;;;;;;8366315;28;19920;-50
2021/11/16 21:06:33;;;;;;;;;;;17.20;42.30;;;;;;8366111;28;19920;-49
2021/11/16 21:10:34;;;;;;;;;;;17.20;42.40;;;;;;8365943;28;19925;-50
2021/11/16 21:14:35;;;;;;;;;;;17.20;42.40;;;;;;8365635;28;20004;-50
2021/11/16 21:18:37;;;;;;;;;;;17.20;42.40;;;;;;8366206;28;19917;-52
2021/11/16 21:22:38;;;;;;;;;;;17.20;42.40;;;;;;8365876;28;19999;-51
2021/11/16 21:26:38;;;;;;;;;;;17.20;42.40;;;;;;8365190;28;19939;-50
2021/11/16 21:30:45;;;;;;;;;;;17.20;42.40;;;;;;8365511;28;19924;-49
2021/11/16 21:34:45;;;;;;;;;;;17.20;42.40;;;;;;8368266;28;19916;-49
2021/11/16 21:38:46;;;;;;;;;;;17.20;42.90;;;;;;8364674;28;20333;-49
2021/11/16 21:42:46;;;;;;;;;;;17.20;42.40;;;;;;8365397;28;20370;-50
2021/11/16 21:46:47;;;;;;;;;;;17.20;42.40;;;;;;8365522;28;20394;-52
2021/11/16 21:50:48;;;;;;;;;;;17.10;42.40;;;;;;8364900;28;20294;-50
2021/11/16 21:54:49;;;;;;;;;;;17.20;42.40;;;;;;8365747;28;19925;-53
2021/11/16 21:58:50;;;;;;;;;;;17.20;42.40;;;;;;8366615;28;19939;-53
2021/11/16 22:02:51;;;;;;;;;;;17.20;42.40;;;;;;8364641;28;19912;-49
2021/11/16 22:06:59;;;;;;;;;;;17.20;42.40;;;;;;8364808;28;19947;-49
2021/11/16 22:15:03;;;;;;;;;;;17.20;42.40;;;;;;8363746;28;20380;-49
2021/11/16 22:19:04;;;;;;;;;;;17.10;42.40;;;;;;8364295;28;20282;-48
2021/11/16 22:23:05;;;;;;;;;;;17.10;42.40;;;;;;8364407;28;20393;-53
2021/11/16 22:27:06;;;;;;;;;;;17.10;42.40;;;;;;8363744;28;20003;-52
2021/11/16 22:31:06;;;;;;;;;;;17.10;42.60;;;;;;8363847;28;19925;-52
2021/11/16 22:39:07;;;;;;;;;;;17.10;42.40;;;;;;8362974;28;19924;-49
2021/11/16 22:43:08;;;;;;;;;;;17.10;42.40;;;;;;8363614;28;19913;-51
2021/11/16 22:47:08;;;;;;;;;;;17.10;42.40;;;;;;8363028;28;19959;-49
2021/11/16 22:51:09;;;;;;;;;;;17.10;42.40;;;;;;8362496;28;19925;-49
2021/11/16 22:55:11;;;;;;;;;;;17.10;42.40;;;;;;8363125;28;20267;-48
